Time;durP1;ratioP1;P1;durP2;ratioP2;P2;SDS_P1;SDS_P2;PMS_P1;PMS_P2;Temp;Humidity;BMP_temperature;BMP_pressure;BME280_temperature;BME280_humidity;BME280_pressure;Samples;Min_cycle;Max_cycle;Signal;HPM_P1;HPM_P2
2022/10/31 00:01:19;;;;;;;5.75;3.00;;;10.80;99.90;;;;;;1911818;73;21051;-74
2022/10/31 00:03:47;;;;;;;7.97;3.35;;;10.80;99.90;;;;;;1911840;74;21078;-74
2022/10/31 00:06:17;;;;;;;5.80;3.20;;;10.70;99.90;;;;;;1919486;74;21058;-75
2022/10/31 00:08:46;;;;;;;6.87;3.57;;;10.80;99.90;;;;;;1913323;73;21103;-74
2022/10/31 00:11:13;;;;;;;13.85;4.15;;;10.80;99.90;;;;;;1915029;75;21372;-75
2022/10/31 00:13:40;;;;;;;12.78;4.00;;;10.80;99.90;;;;;;1907628;74;21457;-75
2022/10/31 00:16:16;;;;;;;11.12;3.90;;;10.80;99.90;;;;;;1910531;73;21074;-74
2022/10/31 00:18:44;;;;;;;12.90;4.20;;;10.70;99.90;;;;;;1910870;73;21616;-74
2022/10/31 00:21:11;;;;;;;10.98;4.47;;;10.70;99.90;;;;;;1911190;74;21552;-74
2022/10/31 00:23:38;;;;;;;12.05;4.65;;;10.70;99.90;;;;;;1911216;73;21074;-74
2022/10/31 00:26:06;;;;;;;11.20;4.08;;;10.70;99.90;;;;;;1908353;74;21156;-75
2022/10/31 00:28:34;;;;;;;10.63;4.53;;;10.70;99.90;;;;;;1917929;74;21082;-74
2022/10/31 00:31:05;;;;;;;11.68;4.17;;;10.70;99.90;;;;;;1914245;74;21263;-74
2022/10/31 00:33:34;;;;;;;9.35;4.45;;;10.60;99.90;;;;;;1907701;74;21079;-74
2022/10/31 00:36:01;;;;;;;6.37;3.52;;;10.60;99.90;;;;;;1912275;74;21090;-75
2022/10/31 00:38:29;;;;;;;8.80;4.22;;;10.60;99.90;;;;;;1909224;74;21043;-74
2022/10/31 00:40:56;;;;;;;5.35;3.15;;;10.60;99.90;;;;;;1912924;74;21443;-74
2022/10/31 00:43:23;;;;;;;9.00;3.75;;;10.60;99.90;;;;;;1903599;73;21082;-74
2022/10/31 00:45:51;;;;;;;9.35;3.20;;;10.60;99.90;;;;;;1910566;74;21242;-74
2022/10/31 00:48:18;;;;;;;9.68;3.95;;;10.60;99.90;;;;;;1911846;74;21160;-74
2022/10/31 00:50:46;;;;;;;16.37;3.95;;;10.60;99.90;;;;;;1912155;74;21091;-75
2022/10/31 00:53:13;;;;;;;10.18;3.58;;;10.50;99.90;;;;;;1903404;74;21078;-74
2022/10/31 00:55:40;;;;;;;5.92;3.02;;;10.50;99.90;;;;;;1907727;74;21159;-74
2022/10/31 00:58:08;;;;;;;9.55;3.00;;;10.50;99.90;;;;;;1908457;74;21156;-74
2022/10/31 01:00:35;;;;;;;6.72;3.65;;;10.40;99.90;;;;;;1898839;74;21133;-74
2022/10/31 01:03:02;;;;;;;7.60;3.47;;;10.40;99.90;;;;;;1908482;74;21074;-74
2022/10/31 01:05:30;;;;;;;10.45;3.58;;;10.40;99.90;;;;;;1914455;73;21152;-74
2022/10/31 01:07:57;;;;;;;11.33;4.35;;;10.40;99.90;;;;;;1910040;73;21160;-74
2022/10/31 01:10:24;;;;;;;9.00;4.05;;;10.40;99.90;;;;;;1909389;74;21248;-74
2022/10/31 01:12:52;;;;;;;9.13;3.27;;;10.20;99.90;;;;;;1913367;73;21233;-74
2022/10/31 01:15:22;;;;;;;9.23;3.72;;;10.20;99.90;;;;;;1910995;74;21144;-74
2022/10/31 01:17:49;;;;;;;12.53;3.85;;;10.20;99.90;;;;;;1909532;74;21148;-74
2022/10/31 01:20:17;;;;;;;6.70;3.47;;;10.30;99.90;;;;;;1904324;74;21081;-74
2022/10/31 01:22:44;;;;;;;9.48;3.98;;;10.30;99.90;;;;;;1908283;73;21155;-74
2022/10/31 01:25:11;;;;;;;13.43;4.22;;;10.30;99.90;;;;;;1915398;74;21073;-74
2022/10/31 01:27:39;;;;;;;9.70;3.40;;;10.30;99.90;;;;;;1907446;73;21070;-73
2022/10/31 01:30:07;;;;;;;12.80;3.20;;;10.30;99.90;;;;;;1913117;74;21074;-74
2022/10/31 01:32:34;;;;;;;15.25;3.65;;;10.30;99.90;;;;;;1912867;73;21156;-74
2022/10/31 01:35:01;;;;;;;10.40;3.75;;;10.20;99.90;;;;;;1911313;73;21132;-74
2022/10/31 01:37:28;;;;;;;11.03;3.60;;;10.20;99.90;;;;;;1909495;73;21443;-74
2022/10/31 01:39:56;;;;;;;5.97;3.42;;;10.20;99.90;;;;;;1910517;74;21077;-73
2022/10/31 01:42:24;;;;;;;7.25;3.08;;;10.20;99.90;;;;;;1916415;74;21074;-73
2022/10/31 01:45:00;;;;;;;20.85;3.83;;;10.20;99.90;;;;;;1911048;74;21094;-74
2022/10/31 01:47:36;;;;;;;7.53;3.62;;;10.20;99.90;;;;;;1911579;73;21173;-73
2022/10/31 01:50:07;;;;;;;5.65;3.20;;;10.10;99.90;;;;;;1910483;74;21078;-73
2022/10/31 01:52:35;;;;;;;;;;;10.10;99.90;;;;;;1912660;74;21098;-73
2022/10/31 01:55:12;;;;;;;7.80;3.12;;;10.10;99.90;;;;;;1914403;74;20232;-73
2022/10/31 01:57:40;;;;;;;6.75;3.42;;;10.10;99.90;;;;;;1904664;74;21070;-74
2022/10/31 02:00:09;;;;;;;8.13;3.87;;;10.10;99.90;;;;;;1906932;74;21126;-73
2022/10/31 02:02:36;;;;;;;7.08;3.30;;;10.10;99.90;;;;;;1880192;75;21548;-73
2022/10/31 02:05:07;;;;;;;8.40;3.42;;;10.10;99.90;;;;;;1910871;73;21043;-73
2022/10/31 02:07:37;;;;;;;14.93;3.87;;;10.00;99.90;;;;;;1914273;73;21218;-73
2022/10/31 02:10:05;;;;;;;12.00;3.70;;;10.00;99.90;;;;;;1911370;73;21195;-74
2022/10/31 02:12:32;;;;;;;10.82;4.65;;;10.00;99.90;;;;;;1914245;73;21047;-73
2022/10/31 02:15:00;;;;;;;8.85;3.35;;;10.00;99.90;;;;;;1914331;75;21059;-74
2022/10/31 02:17:28;;;;;;;7.95;3.87;;;10.00;99.90;;;;;;1918493;74;21086;-73
2022/10/31 02:20:04;;;;;;;14.68;3.40;;;10.00;99.90;;;;;;1887400;74;21226;-75
2022/10/31 02:22:36;;;;;;;10.05;3.67;;;10.00;99.90;;;;;;1905264;74;21070;-75
2022/10/31 02:25:19;;;;;;;9.35;3.20;;;10.00;99.90;;;;;;1904657;74;21475;-74
2022/10/31 02:27:58;;;;;;;7.78;3.27;;;10.00;99.90;;;;;;1911568;74;21074;-74
2022/10/31 02:30:32;;;;;;;6.03;3.52;;;10.00;99.90;;;;;;1870158;74;21156;-74
2022/10/31 02:33:08;;;;;;;7.70;3.58;;;10.00;99.90;;;;;;1910179;74;21074;-74
2022/10/31 02:36:01;;;;;;;9.53;3.70;;;10.00;99.90;;;;;;1913523;73;21501;-74
2022/10/31 02:38:32;;;;;;;10.43;3.92;;;9.90;99.90;;;;;;1913217;74;21592;-74
2022/10/31 02:41:08;;;;;;;7.05;3.12;;;9.90;99.90;;;;;;1913619;74;21216;-74
2022/10/31 02:43:45;;;;;;;9.05;3.25;;;9.90;99.90;;;;;;1909917;73;21047;-74
2022/10/31 02:46:31;;;;;;;7.80;3.80;;;9.80;99.90;;;;;;1914230;75;21529;-74
2022/10/31 02:49:00;;;;;;;10.03;3.65;;;9.80;99.90;;;;;;1909451;74;21039;-75
2022/10/31 02:51:28;;;;;;;9.50;3.42;;;9.80;99.90;;;;;;1909593;74;21130;-74
2022/10/31 02:53:55;;;;;;;7.05;4.20;;;9.80;99.90;;;;;;1912821;74;21144;-74
2022/10/31 02:56:22;;;;;;;12.25;3.87;;;9.80;99.90;;;;;;1913693;74;21552;-74
2022/10/31 02:59:01;;;;;;;13.03;4.08;;;9.80;99.90;;;;;;1910281;73;21118;-74
2022/10/31 03:01:37;;;;;;;7.10;3.58;;;9.80;99.90;;;;;;1910287;74;21567;-74
2022/10/31 03:04:10;;;;;;;6.60;3.33;;;9.70;99.90;;;;;;1907748;74;21161;-75
2022/10/31 03:06:43;;;;;;;5.92;3.70;;;9.70;99.90;;;;;;1911461;74;21078;-75
2022/10/31 03:09:20;;;;;;;7.10;3.45;;;9.70;99.90;;;;;;1913750;73;21079;-75
2022/10/31 03:11:56;;;;;;;10.63;4.03;;;9.70;99.90;;;;;;1913304;73;21470;-75
2022/10/31 03:14:26;;;;;;;21.70;4.78;;;9.60;99.90;;;;;;1911622;74;21147;-74
2022/10/31 03:16:54;;;;;;;12.60;3.98;;;9.60;99.90;;;;;;1876443;74;21164;-75
2022/10/31 03:19:29;;;;;;;9.88;3.52;;;9.60;99.90;;;;;;1918251;73;21144;-74
2022/10/31 03:22:02;;;;;;;6.08;3.33;;;9.60;99.90;;;;;;1911573;74;21055;-75
2022/10/31 03:24:34;;;;;;;7.58;3.60;;;9.60;99.90;;;;;;1914556;75;21225;-74
2022/10/31 03:27:02;;;;;;;6.78;3.40;;;9.50;99.90;;;;;;1912420;74;21078;-75
2022/10/31 03:29:31;;;;;;;7.20;3.72;;;9.50;99.90;;;;;;1909622;74;21117;-75
2022/10/31 03:32:01;;;;;;;11.20;3.85;;;9.50;99.90;;;;;;1913662;73;21083;-74
2022/10/31 03:34:28;;;;;;;8.03;4.25;;;9.50;99.90;;;;;;1912631;73;21132;-74
2022/10/31 03:36:56;;;;;;;10.82;4.05;;;9.50;99.90;;;;;;1911607;73;21129;-74
2022/10/31 03:39:24;;;;;;;8.95;3.83;;;9.50;99.90;;;;;;1906736;74;21233;-74
2022/10/31 03:42:06;;;;;;;7.20;3.58;;;9.50;99.90;;;;;;1909628;73;21155;-74
2022/10/31 03:44:33;;;;;;;5.65;3.30;;;9.40;99.90;;;;;;1897418;74;21165;-74
2022/10/31 03:47:01;;;;;;;8.48;3.70;;;9.40;99.90;;;;;;1911130;73;21151;-74
2022/10/31 03:49:28;;;;;;;6.50;3.70;;;9.40;99.90;;;;;;1913692;73;21156;-74
2022/10/31 03:52:21;;;;;;;10.23;4.35;;;9.40;99.90;;;;;;1907819;74;21129;-74
2022/10/31 03:54:52;;;;;;;6.12;3.40;;;9.40;99.90;;;;;;1906685;73;21078;-74
2022/10/31 03:57:28;;;;;;;6.10;3.80;;;9.40;99.90;;;;;;1911633;74;21159;-74
2022/10/31 04:00:06;;;;;;;8.43;3.80;;;9.40;99.90;;;;;;1911236;74;21215;-74
2022/10/31 04:02:35;;;;;;;7.78;4.03;;;9.40;99.90;;;;;;1912917;74;21082;-74
2022/10/31 04:05:02;;;;;;;6.72;3.47;;;9.30;99.90;;;;;;1910115;73;21482;-74
2022/10/31 04:07:33;;;;;;;6.92;3.15;;;9.30;99.90;;;;;;1910663;74;21098;-74
2022/10/31 04:10:00;;;;;;;9.30;4.03;;;9.30;99.90;;;;;;1906658;74;21153;-75
2022/10/31 04:12:28;;;;;;;7.67;3.45;;;9.20;99.90;;;;;;1913235;74;21082;-74
2022/10/31 04:14:55;;;;;;;5.92;3.60;;;9.20;99.90;;;;;;1914562;75;21109;-74
2022/10/31 04:17:23;;;;;;;8.38;3.45;;;9.20;99.90;;;;;;1907016;74;21148;-75
2022/10/31 04:19:50;;;;;;;8.80;3.72;;;9.20;99.90;;;;;;1915001;74;21086;-74
2022/10/31 04:22:17;;;;;;;7.45;3.92;;;9.20;99.90;;;;;;1915971;74;21086;-74
2022/10/31 04:24:45;;;;;;;6.40;3.67;;;9.20;99.90;;;;;;1915159;74;21135;-74
2022/10/31 04:27:12;;;;;;;11.55;3.40;;;9.20;99.90;;;;;;1914877;74;21450;-74
2022/10/31 04:29:39;;;;;;;8.70;3.47;;;9.20;99.90;;;;;;1910749;74;21067;-74
2022/10/31 04:32:06;;;;;;;12.10;4.37;;;9.20;99.90;;;;;;1907509;74;21471;-74
2022/10/31 04:34:34;;;;;;;11.90;3.67;;;9.20;99.90;;;;;;1910870;73;21153;-74
2022/10/31 04:37:01;;;;;;;13.75;4.40;;;9.20;99.90;;;;;;1912295;73;21078;-74
2022/10/31 04:39:28;;;;;;;10.38;4.58;;;9.20;99.90;;;;;;1912572;75;21074;-74
2022/10/31 04:41:56;;;;;;;4.75;3.60;;;9.10;99.90;;;;;;1913687;74;21094;-74
2022/10/31 04:44:23;;;;;;;9.33;3.80;;;9.10;99.90;;;;;;1915303;75;21192;-74
2022/10/31 04:46:50;;;;;;;7.62;4.08;;;9.10;99.90;;;;;;1909600;74;21152;-74
2022/10/31 04:49:17;;;;;;;10.30;4.05;;;9.10;99.90;;;;;;1906807;74;21467;-74
2022/10/31 04:51:45;;;;;;;8.18;4.10;;;9.00;99.90;;;;;;1912551;74;21149;-74
2022/10/31 04:54:12;;;;;;;10.82;3.72;;;9.00;99.90;;;;;;1915448;74;21071;-74
2022/10/31 04:56:39;;;;;;;10.55;3.87;;;8.90;99.90;;;;;;1915750;74;21152;-74
2022/10/31 04:59:07;;;;;;;11.08;4.65;;;8.80;99.90;;;;;;1913946;74;21156;-74
2022/10/31 05:01:34;;;;;;;11.57;3.70;;;8.80;99.90;;;;;;1910070;74;21169;-74
2022/10/31 05:04:01;;;;;;;7.00;3.87;;;8.80;99.90;;;;;;1909784;74;21462;-74
2022/10/31 05:06:29;;;;;;;12.18;3.50;;;8.70;99.90;;;;;;1920501;74;21081;-74
2022/10/31 05:08:56;;;;;;;12.80;4.08;;;8.70;99.90;;;;;;1915897;74;21156;-74
2022/10/31 05:11:23;;;;;;;11.75;4.00;;;8.80;99.90;;;;;;1914685;74;21690;-74
2022/10/31 05:13:51;;;;;;;11.20;3.92;;;8.80;99.90;;;;;;1911932;74;21078;-74
2022/10/31 05:16:18;;;;;;;8.48;3.85;;;8.90;99.90;;;;;;1911425;74;21043;-74
2022/10/31 05:18:45;;;;;;;13.25;4.40;;;8.90;99.90;;;;;;1912376;74;21082;-74
2022/10/31 05:21:13;;;;;;;8.33;3.80;;;8.90;99.90;;;;;;1913118;74;21151;-74
2022/10/31 05:23:40;;;;;;;10.15;4.28;;;8.80;99.90;;;;;;1905694;73;21152;-74
2022/10/31 05:26:07;;;;;;;13.43;3.98;;;8.90;99.90;;;;;;1910785;74;21144;-75
2022/10/31 05:28:34;;;;;;;9.18;3.67;;;8.80;99.90;;;;;;1911106;74;21075;-75
2022/10/31 05:31:02;;;;;;;6.37;3.58;;;8.80;99.90;;;;;;1911682;74;21144;-74
2022/10/31 05:33:29;;;;;;;8.63;4.08;;;8.70;99.90;;;;;;1910506;74;21141;-74
2022/10/31 05:35:56;;;;;;;13.85;4.25;;;8.70;99.90;;;;;;1909869;73;21543;-74
2022/10/31 05:41:11;;;;;;;10.25;4.47;;;8.70;99.90;;;;;;2054229;70;27863;-74
2022/10/31 05:43:38;;;;;;;19.67;4.55;;;8.60;99.90;;;;;;2010915;70;21123;-74
2022/10/31 05:46:05;;;;;;;15.68;3.85;;;8.60;99.90;;;;;;2014651;70;21185;-74
2022/10/31 05:48:33;;;;;;;11.28;4.30;;;8.60;99.90;;;;;;1967654;72;21459;-74
2022/10/31 05:51:00;;;;;;;9.85;4.10;;;8.60;99.90;;;;;;1931204;73;21055;-74
2022/10/31 05:53:27;;;;;;;10.98;3.55;;;8.60;99.90;;;;;;1936463;73;21162;-74
2022/10/31 05:55:55;;;;;;;8.08;3.35;;;8.50;99.90;;;;;;2003052;70;21435;-75
2022/10/31 05:58:22;;;;;;;6.08;3.52;;;8.60;99.90;;;;;;2007137;70;21096;-74
2022/10/31 06:00:49;;;;;;;9.50;4.03;;;8.60;99.90;;;;;;2022614;70;21796;-75
2022/10/31 06:03:17;;;;;;;11.35;3.95;;;8.60;99.90;;;;;;2009880;70;21359;-74
2022/10/31 06:05:44;;;;;;;13.35;3.70;;;8.60;99.90;;;;;;2009939;70;21109;-75
2022/10/31 06:08:11;;;;;;;5.45;3.62;;;8.60;99.90;;;;;;2010003;71;21185;-74
2022/10/31 06:10:38;;;;;;;12.10;4.22;;;8.60;99.90;;;;;;2006347;70;21463;-75
2022/10/31 06:13:06;;;;;;;9.70;4.62;;;8.60;99.90;;;;;;2006588;70;21044;-76
2022/10/31 06:15:33;;;;;;;10.80;4.62;;;8.60;99.90;;;;;;2020156;70;21150;-76
2022/10/31 06:18:02;;;;;;;15.18;5.40;;;8.60;99.90;;;;;;2002059;70;21448;-74
2022/10/31 06:20:29;;;;;;;11.60;6.75;;;8.60;99.90;;;;;;2000608;70;21023;-74
2022/10/31 06:22:56;;;;;;;10.58;5.03;;;8.60;99.90;;;;;;2007754;70;21108;-74
2022/10/31 06:25:24;;;;;;;11.10;5.42;;;8.60;99.90;;;;;;2015243;70;21090;-74
2022/10/31 06:27:51;;;;;;;6.78;4.40;;;8.60;99.90;;;;;;2010068;71;21057;-74
2022/10/31 06:30:18;;;;;;;17.02;4.70;;;8.60;99.90;;;;;;2010094;71;21081;-74
2022/10/31 06:32:46;;;;;;;13.28;4.50;;;8.60;99.90;;;;;;2000387;70;21019;-75
2022/10/31 06:35:13;;;;;;;9.70;3.92;;;8.70;99.90;;;;;;2013341;70;21147;-75
2022/10/31 06:37:40;;;;;;;10.80;4.75;;;8.70;99.90;;;;;;1963647;73;21093;-75
2022/10/31 06:40:08;;;;;;;8.95;4.80;;;8.80;99.90;;;;;;2002589;70;21030;-75
2022/10/31 06:42:35;;;;;;;12.50;4.47;;;8.80;99.90;;;;;;2012627;70;21051;-75
2022/10/31 06:45:03;;;;;;;12.47;4.53;;;8.70;99.90;;;;;;2021146;70;21416;-75
2022/10/31 06:47:30;;;;;;;10.32;4.17;;;8.70;99.90;;;;;;2014938;70;21149;-73
2022/10/31 06:49:57;;;;;;;10.05;5.08;;;8.80;99.90;;;;;;2007850;70;21112;-74
2022/10/31 06:52:25;;;;;;;8.95;4.80;;;8.90;99.90;;;;;;2013709;70;21520;-74
2022/10/31 06:54:52;;;;;;;13.08;4.60;;;8.90;99.90;;;;;;2010892;70;21016;-76
2022/10/31 06:57:19;;;;;;;16.23;4.25;;;9.00;99.90;;;;;;2007068;70;21129;-74
2022/10/31 06:59:47;;;;;;;8.93;4.42;;;9.00;99.90;;;;;;2014360;70;21052;-76
2022/10/31 07:02:14;;;;;;;6.75;3.87;;;9.00;99.90;;;;;;2004989;70;21091;-74
2022/10/31 07:04:44;;;;;;;7.62;4.15;;;9.10;99.90;;;;;;2005982;70;21039;-73
2022/10/31 07:07:10;;;;;;;12.43;4.87;;;9.10;99.90;;;;;;2002043;70;21464;-76
2022/10/31 07:09:38;;;;;;;11.55;5.30;;;9.20;99.90;;;;;;2011171;70;21051;-76
2022/10/31 07:12:05;;;;;;;10.00;4.33;;;9.20;99.90;;;;;;2010255;70;21020;-74
2022/10/31 07:14:32;;;;;;;11.03;4.35;;;9.20;99.90;;;;;;1982436;70;21120;-75
2022/10/31 07:17:00;;;;;;;13.22;4.90;;;9.30;99.90;;;;;;1970751;72;21529;-76
2022/10/31 07:19:27;;;;;;;11.85;4.80;;;9.40;99.90;;;;;;1935823;73;21045;-76
2022/10/31 07:21:54;;;;;;;10.80;4.45;;;9.50;99.90;;;;;;2009639;71;20992;-75
2022/10/31 07:24:22;;;;;;;9.83;4.50;;;9.60;99.90;;;;;;2005525;70;21047;-75
2022/10/31 07:26:50;;;;;;;8.75;4.55;;;9.50;99.90;;;;;;1973973;71;21159;-75
2022/10/31 07:29:17;;;;;;;12.85;4.55;;;9.60;99.90;;;;;;2013661;70;21152;-75
2022/10/31 07:31:46;;;;;;;9.98;4.12;;;9.70;99.90;;;;;;2009236;70;21584;-75
2022/10/31 07:34:14;;;;;;;14.87;3.95;;;9.50;99.90;;;;;;2009382;70;21253;-76
2022/10/31 07:36:41;;;;;;;8.40;3.50;;;9.50;99.90;;;;;;2005720;70;21111;-75
2022/10/31 07:39:08;;;;;;;10.08;4.53;;;9.60;99.90;;;;;;1963557;72;21121;-75
2022/10/31 07:41:35;;;;;;;13.68;4.10;;;9.80;99.90;;;;;;2008031;70;21121;-75
2022/10/31 07:44:03;;;;;;;5.85;3.90;;;9.80;99.90;;;;;;2002340;70;21112;-75
2022/10/31 07:46:30;;;;;;;9.38;3.98;;;9.80;99.90;;;;;;1973097;72;21047;-76
2022/10/31 07:48:57;;;;;;;11.30;3.42;;;9.90;99.90;;;;;;2010276;71;20976;-75
2022/10/31 07:51:25;;;;;;;9.50;3.83;;;10.00;99.90;;;;;;2003726;70;21116;-74
2022/10/31 07:53:52;;;;;;;15.13;3.72;;;10.10;99.90;;;;;;2011411;71;21454;-74
2022/10/31 07:56:19;;;;;;;8.18;3.77;;;10.20;99.90;;;;;;2005638;70;21032;-74
2022/10/31 07:58:47;;;;;;;11.10;4.62;;;10.10;99.90;;;;;;2006151;70;21418;-74
2022/10/31 08:01:14;;;;;;;8.93;3.83;;;10.10;99.90;;;;;;2020370;70;21051;-74
2022/10/31 08:03:41;;;;;;;13.05;4.20;;;10.20;99.90;;;;;;1964552;72;21432;-74
2022/10/31 08:06:08;;;;;;;12.82;3.85;;;10.30;99.90;;;;;;2008294;70;21117;-75
2022/10/31 08:08:37;;;;;;;7.58;3.55;;;10.10;99.90;;;;;;2013344;70;21015;-74
2022/10/31 08:11:04;;;;;;;9.70;3.75;;;10.10;99.90;;;;;;2005859;70;21042;-75
2022/10/31 08:13:31;;;;;;;10.43;4.25;;;10.20;99.90;;;;;;2016261;70;21121;-76
2022/10/31 08:16:03;;;;;;;11.88;4.28;;;10.30;99.90;;;;;;2009748;70;21102;-74
2022/10/31 08:18:28;;;;;;;9.38;4.37;;;10.40;99.90;;;;;;1994043;70;21229;-75
2022/10/31 08:20:56;;;;;;;10.82;4.15;;;10.70;99.90;;;;;;2009663;70;21437;-75
2022/10/31 08:23:23;;;;;;;10.58;4.17;;;10.80;99.90;;;;;;2001242;70;21452;-75
2022/10/31 08:25:50;;;;;;;12.28;4.65;;;10.80;99.90;;;;;;2001302;70;21055;-75
2022/10/31 08:28:17;;;;;;;12.28;4.72;;;10.90;99.90;;;;;;2009331;70;21124;-75
2022/10/31 08:30:46;;;;;;;17.00;4.40;;;11.00;99.90;;;;;;2011066;70;21077;-74
2022/10/31 08:33:16;;;;;;;9.43;4.08;;;11.00;99.90;;;;;;2018560;71;21659;-75
2022/10/31 08:35:44;;;;;;;6.55;3.27;;;11.10;99.90;;;;;;2003758;70;21163;-75
2022/10/31 08:38:12;;;;;;;13.70;3.85;;;11.20;99.90;;;;;;1967016;72;21043;-75
2022/10/31 08:40:39;;;;;;;9.63;3.60;;;11.10;99.90;;;;;;2009124;70;21459;-75
2022/10/31 08:43:14;;;;;;;13.75;4.95;;;11.10;99.90;;;;;;2012762;70;21432;-75
2022/10/31 08:45:41;;;;;;;9.38;3.95;;;11.20;99.90;;;;;;2008506;70;21043;-74
2022/10/31 08:48:11;;;;;;;8.63;3.70;;;11.30;99.90;;;;;;1961268;72;21112;-74
2022/10/31 08:50:38;;;;;;;26.02;4.65;;;11.40;99.90;;;;;;2008610;70;21194;-74
2022/10/31 08:53:08;;;;;;;9.68;3.80;;;11.40;99.90;;;;;;2008744;70;21039;-73
2022/10/31 08:55:37;;;;;;;12.63;4.17;;;11.50;99.90;;;;;;2007047;70;21488;-73
2022/10/31 08:58:06;;;;;;;11.78;3.77;;;11.80;99.90;;;;;;2002699;70;21109;-74
2022/10/31 09:00:34;;;;;;;7.33;3.22;;;12.00;99.90;;;;;;2007701;70;21117;-74
2022/10/31 09:03:04;;;;;;;9.25;3.37;;;11.80;99.90;;;;;;1962884;72;21022;-75
2022/10/31 09:05:31;;;;;;;10.18;3.02;;;12.00;99.90;;;;;;2011703;70;21023;-74
2022/10/31 09:07:59;;;;;;;5.42;3.15;;;12.10;99.90;;;;;;2016521;71;21065;-75
2022/10/31 09:10:27;;;;;;;6.90;3.15;;;12.40;99.90;;;;;;2009587;71;21000;-74
2022/10/31 09:13:03;;;;;;;10.23;3.37;;;12.50;99.90;;;;;;2021106;70;21256;-75
2022/10/31 09:15:31;;;;;;;11.12;3.12;;;12.40;99.90;;;;;;2020564;70;21019;-74
2022/10/31 09:17:58;;;;;;;7.58;3.20;;;12.50;99.90;;;;;;2010542;70;21047;-75
2022/10/31 09:20:25;;;;;;;11.20;3.47;;;12.70;99.90;;;;;;2006770;70;21046;-75
2022/10/31 09:23:00;;;;;;;6.55;2.83;;;12.60;99.90;;;;;;2014121;70;21113;-74
2022/10/31 09:25:27;;;;;;;8.80;3.30;;;12.80;99.90;;;;;;2027265;71;21190;-76
2022/10/31 09:27:58;;;;;;;7.65;2.85;;;12.90;99.90;;;;;;2019985;70;21062;-74
2022/10/31 09:30:29;;;;;;;7.40;3.02;;;12.80;99.90;;;;;;2007790;71;21102;-74
2022/10/31 09:33:01;;;;;;;9.80;2.85;;;12.60;99.90;;;;;;2009203;71;21000;-74
2022/10/31 09:35:28;;;;;;;5.30;2.65;;;12.80;99.90;;;;;;2011275;70;21427;-73
2022/10/31 09:38:02;;;;;;;7.55;3.00;;;12.90;99.90;;;;;;2006764;70;21209;-74
2022/10/31 09:40:38;;;;;;;7.67;3.37;;;12.90;99.90;;;;;;2009538;70;21129;-74
2022/10/31 09:43:08;;;;;;;4.75;2.65;;;13.00;99.90;;;;;;2010619;70;21059;-74
2022/10/31 09:45:54;;;;;;;6.53;3.10;;;13.10;99.90;;;;;;2016897;70;21404;-74
2022/10/31 09:48:33;;;;;;;7.87;3.37;;;13.40;99.90;;;;;;2006718;70;21463;-74
2022/10/31 09:51:06;;;;;;;6.27;3.10;;;13.30;99.90;;;;;;2015057;70;21051;-73
2022/10/31 09:53:39;;;;;;;5.58;3.45;;;13.30;99.90;;;;;;2009066;70;21043;-73
2022/10/31 09:56:12;;;;;;;6.95;3.40;;;13.50;99.90;;;;;;2012427;70;21116;-73
2022/10/31 09:58:48;;;;;;;6.30;3.47;;;13.60;99.90;;;;;;2001008;70;21191;-73
2022/10/31 10:01:24;;;;;;;8.35;3.37;;;13.70;99.90;;;;;;2008539;70;21436;-73
2022/10/31 10:03:53;;;;;;;8.43;2.80;;;14.00;99.90;;;;;;1956353;70;21443;-73
2022/10/31 10:06:25;;;;;;;8.53;3.20;;;13.60;99.90;;;;;;2013909;70;21186;-74
2022/10/31 10:08:52;;;;;;;10.18;3.20;;;14.00;99.90;;;;;;2008188;70;21048;-74
2022/10/31 10:11:23;;;;;;;8.00;3.58;;;14.40;99.90;;;;;;2005563;70;21194;-73
2022/10/31 10:14:00;;;;;;;10.18;3.95;;;14.30;99.90;;;;;;2005761;70;21423;-73
2022/10/31 10:16:45;;;;;;;5.75;2.95;;;14.40;99.90;;;;;;2005427;70;21219;-73
2022/10/31 10:19:32;;;;;;;7.15;2.70;;;14.70;99.90;;;;;;2008690;71;21461;-73
2022/10/31 10:22:11;;;;;;;10.65;3.75;;;14.90;99.90;;;;;;2008676;71;21023;-73
2022/10/31 10:24:57;;;;;;;10.68;3.05;;;14.80;99.90;;;;;;2005210;70;21046;-74
2022/10/31 10:27:47;;;;;;;8.85;3.22;;;14.80;99.90;;;;;;1993522;70;21473;-74
2022/10/31 10:30:18;;;;;;;11.60;2.98;;;14.60;99.90;;;;;;2015768;70;21078;-73
2022/10/31 10:32:52;;;;;;;;;;;14.70;99.90;;;;;;2015126;70;21094;-74
2022/10/31 10:35:48;;;;;;;8.73;2.95;;;14.90;99.90;;;;;;1998660;70;20115;-73
2022/10/31 10:38:31;;;;;;;12.45;3.20;;;15.30;99.90;;;;;;1963161;72;21145;-74
2022/10/31 10:40:59;;;;;;;8.48;3.30;;;15.10;99.90;;;;;;2009064;71;21420;-75
2022/10/31 10:43:37;;;;;;;11.75;3.40;;;15.10;99.90;;;;;;2001227;70;21038;-75
2022/10/31 10:49:19;;;;;;;15.03;3.02;;;15.10;99.90;;;;;;2013800;70;21464;-75
2022/10/31 10:51:55;;;;;;;8.28;3.75;;;15.20;99.90;;;;;;1985947;71;21114;-75
2022/10/31 10:54:37;;;;;;;8.78;3.47;;;15.30;99.90;;;;;;2015955;70;21085;-74
2022/10/31 10:57:24;;;;;;;15.72;3.40;;;15.20;99.90;;;;;;2009266;70;21034;-74
2022/10/31 10:59:52;;;;;;;7.28;3.15;;;15.30;99.90;;;;;;1961690;72;21118;-74
2022/10/31 11:02:21;;;;;;;7.15;3.15;;;15.00;99.90;;;;;;2008570;70;21533;-75
2022/10/31 11:04:51;;;;;;;7.15;3.00;;;15.10;99.90;;;;;;1984598;71;21028;-76
2022/10/31 11:07:18;;;;;;;9.18;3.83;;;15.30;99.90;;;;;;2009221;70;21139;-74
2022/10/31 11:09:46;;;;;;;9.55;3.80;;;15.30;99.90;;;;;;2002273;70;21019;-74
2022/10/31 11:12:20;;;;;;;10.90;3.40;;;15.40;99.90;;;;;;2011289;70;21445;-74
2022/10/31 11:14:55;;;;;;;6.10;2.98;;;15.30;99.90;;;;;;1997798;70;21011;-75
2022/10/31 11:17:29;;;;;;;11.30;3.02;;;15.30;99.90;;;;;;2009126;70;21035;-75
2022/10/31 11:20:14;;;;;;;5.87;3.10;;;15.40;99.90;;;;;;2009072;70;21117;-75
2022/10/31 11:22:44;;;;;;;9.25;3.35;;;15.80;99.90;;;;;;2003888;71;21105;-73
2022/10/31 11:25:22;;;;;;;15.10;4.12;;;15.90;99.90;;;;;;2005713;70;21457;-74
2022/10/31 11:28:04;;;;;;;16.70;3.67;;;16.20;99.90;;;;;;2021334;71;21105;-75
2022/10/31 11:30:34;;;;;;;9.93;3.52;;;16.40;99.90;;;;;;2000065;70;21038;-74
2022/10/31 11:33:01;;;;;;;7.67;3.40;;;16.30;99.90;;;;;;2014742;70;21021;-74
2022/10/31 11:35:28;;;;;;;12.05;4.28;;;16.60;99.90;;;;;;2008788;70;21051;-74
2022/10/31 11:37:58;;;;;;;8.30;3.35;;;16.60;99.90;;;;;;2009380;71;20992;-74
2022/10/31 11:40:26;;;;;;;9.98;2.90;;;16.70;99.90;;;;;;1999573;70;21081;-74
2022/10/31 11:42:56;;;;;;;10.13;2.98;;;16.80;99.90;;;;;;1962357;72;21136;-74
2022/10/31 11:45:26;;;;;;;4.65;3.17;;;16.80;99.90;;;;;;2009167;71;21000;-74
2022/10/31 11:47:54;;;;;;;10.60;3.02;;;16.80;99.90;;;;;;2009188;71;21081;-74
2022/10/31 11:50:24;;;;;;;11.12;3.45;;;16.70;99.90;;;;;;2007998;70;21055;-74
2022/10/31 11:52:51;;;;;;;15.53;3.27;;;17.20;99.90;;;;;;2012556;71;21081;-73
2022/10/31 11:55:33;;;;;;;12.07;3.15;;;17.20;99.90;;;;;;2008851;70;21120;-74
2022/10/31 11:58:01;;;;;;;6.85;3.42;;;17.60;99.90;;;;;;2016815;70;21456;-73
2022/10/31 12:00:33;;;;;;;10.53;3.67;;;17.30;99.90;;;;;;1963821;73;21152;-73
2022/10/31 12:03:24;;;;;;;12.85;3.58;;;17.40;99.90;;;;;;2008657;70;21048;-75
2022/10/31 12:06:00;;;;;;;6.05;2.92;;;17.20;99.90;;;;;;2005748;70;21428;-74
2022/10/31 12:08:32;;;;;;;9.65;3.25;;;17.50;99.90;;;;;;2009097;71;21088;-74
2022/10/31 12:11:22;;;;;;;10.63;2.92;;;17.70;99.90;;;;;;2004594;70;21046;-74
2022/10/31 12:13:59;;;;;;;10.88;2.92;;;17.20;99.90;;;;;;2009321;70;21169;-74
2022/10/31 12:16:33;;;;;;;5.65;2.50;;;17.50;99.90;;;;;;2009112;71;21455;-75
2022/10/31 12:19:28;;;;;;;7.85;3.20;;;17.80;99.90;;;;;;1886922;72;21032;-74
2022/10/31 12:22:22;;;;;;;3.85;2.55;;;17.70;99.90;;;;;;1968507;70;21183;-74
2022/10/31 12:25:18;;;;;;;7.62;2.62;;;17.80;99.90;;;;;;2009149;70;21113;-74
2022/10/31 12:28:06;;;;;;;12.15;3.05;;;17.50;99.90;;;;;;2003015;70;21050;-75
2022/10/31 12:30:53;;;;;;;12.60;3.05;;;17.60;99.90;;;;;;1969776;73;21081;-74
2022/10/31 12:33:39;;;;;;;9.58;3.05;;;17.80;99.90;;;;;;2015443;70;21046;-75
2022/10/31 12:36:29;;;;;;;12.82;3.52;;;17.50;99.90;;;;;;2008975;70;21138;-74
2022/10/31 12:39:09;;;;;;;5.85;2.90;;;17.60;99.90;;;;;;2009299;71;21112;-75
2022/10/31 12:41:51;;;;;;;7.87;3.52;;;17.70;99.90;;;;;;1982756;70;21125;-75
2022/10/31 12:44:46;;;;;;;9.65;3.12;;;18.00;99.90;;;;;;2007816;70;21439;-75
2022/10/31 12:47:28;;;;;;;8.18;3.17;;;18.30;99.90;;;;;;1978979;70;21108;-74
2022/10/31 12:50:15;;;;;;;5.75;2.42;;;18.40;99.90;;;;;;1927242;71;21509;-73
2022/10/31 12:52:58;;;;;;;10.68;3.05;;;18.30;99.90;;;;;;2012317;70;21479;-73
2022/10/31 12:55:35;;;;;;;7.83;2.92;;;18.30;99.90;;;;;;2017478;70;21448;-73
2022/10/31 12:58:11;;;;;;;5.85;2.87;;;18.20;99.90;;;;;;2009961;70;21051;-74
2022/10/31 13:00:40;;;;;;;5.05;2.60;;;17.90;99.90;;;;;;2000371;70;21133;-73
2022/10/31 13:03:16;;;;;;;12.20;2.87;;;17.80;99.90;;;;;;1968582;72;21145;-73
2022/10/31 13:05:45;;;;;;;8.18;2.55;;;17.70;99.90;;;;;;2009302;71;21288;-74
2022/10/31 13:08:21;;;;;;;7.22;2.80;;;17.80;99.90;;;;;;1998580;70;21124;-74
2022/10/31 13:11:08;;;;;;;8.08;3.20;;;18.00;99.90;;;;;;2008571;71;21008;-74
2022/10/31 13:13:56;;;;;;;10.80;3.83;;;18.20;99.90;;;;;;2002281;70;21156;-74